createdAt,value
2019-01-16T00:00:18.207Z,948.8
2019-01-16T00:03:27.125Z,948.8
2019-01-16T00:06:33.000Z,948.8
2019-01-16T00:09:39.062Z,948.8
2019-01-16T00:12:45.021Z,948.9
2019-01-16T00:15:50.985Z,949
2019-01-16T00:18:56.872Z,949
2019-01-16T00:22:02.808Z,948.9
2019-01-16T00:25:08.774Z,948.8
2019-01-16T00:28:14.713Z,948.8
2019-01-16T00:31:20.593Z,948.8
2019-01-16T00:34:26.529Z,948.7
2019-01-16T00:37:32.405Z,948.7
2019-01-16T00:40:38.345Z,948.7
2019-01-16T00:43:44.221Z,948.7
2019-01-16T00:46:50.268Z,948.8
2019-01-16T00:49:56.142Z,948.7
2019-01-16T00:53:02.183Z,948.8
2019-01-16T00:56:08.244Z,948.8
2019-01-16T00:59:14.256Z,948.9
2019-01-16T01:02:20.270Z,948.9
2019-01-16T01:05:26.262Z,949
2019-01-16T01:08:32.395Z,949
2019-01-16T01:11:38.332Z,949
2019-01-16T01:14:44.621Z,948.9
2019-01-16T01:17:50.677Z,948.9
2019-01-16T01:20:56.635Z,948.9
2019-01-16T01:24:05.245Z,948.9
2019-01-16T01:27:11.218Z,948.9
2019-01-16T01:30:17.176Z,948.9
2019-01-16T01:33:23.117Z,948.8
2019-01-16T01:36:29.126Z,948.8
2019-01-16T01:39:35.038Z,948.8
2019-01-16T01:42:40.971Z,948.8
2019-01-16T01:45:46.846Z,948.8
2019-01-16T01:48:52.937Z,948.8
2019-01-16T01:51:59.097Z,948.8
2019-01-16T01:55:04.978Z,948.8
2019-01-16T01:58:11.053Z,948.9
2019-01-16T02:01:16.918Z,948.8
2019-01-16T02:04:22.831Z,948.8
2019-01-16T02:07:28.763Z,948.9
2019-01-16T02:10:34.764Z,948.8
2019-01-16T02:13:40.740Z,948.8
2019-01-16T02:16:46.589Z,948.6
2019-01-16T02:19:52.667Z,948.7
2019-01-16T02:22:58.723Z,948.7
2019-01-16T02:26:04.637Z,948.7
2019-01-16T02:29:10.612Z,948.6
2019-01-16T02:32:16.674Z,948.6
2019-01-16T02:35:22.624Z,948.5
2019-01-16T02:38:28.598Z,948.6
2019-01-16T02:41:34.549Z,948.5
2019-01-16T02:44:43.601Z,948.5
2019-01-16T02:47:49.538Z,948.5
2019-01-16T02:50:55.498Z,948.5
2019-01-16T02:54:01.443Z,948.5
2019-01-16T02:57:07.427Z,948.5
2019-01-16T03:00:13.295Z,948.4
2019-01-16T03:03:19.258Z,948.4
2019-01-16T03:06:25.305Z,948.4
2019-01-16T03:09:31.184Z,948.4
2019-01-16T03:12:37.360Z,948.3
2019-01-16T03:15:43.294Z,948.3
2019-01-16T03:18:49.337Z,948.1
2019-01-16T03:21:55.221Z,948.1
2019-01-16T03:25:01.563Z,948.2
2019-01-16T03:28:07.836Z,948.1
2019-01-16T03:31:13.822Z,948.2
2019-01-16T03:34:19.859Z,948.2
2019-01-16T03:37:25.794Z,948.3
2019-01-16T03:40:31.777Z,948.4
2019-01-16T03:43:37.833Z,948.3
2019-01-16T03:46:43.790Z,948.3
2019-01-16T03:49:49.786Z,948.3
2019-01-16T03:52:55.817Z,948.4
2019-01-16T03:56:01.680Z,948.4
2019-01-16T03:59:07.734Z,948.4
2019-01-16T04:02:13.600Z,948.5
2019-01-16T04:05:19.653Z,948.4
2019-01-16T04:08:25.526Z,948.4
2019-01-16T04:11:31.514Z,948.4
2019-01-16T04:14:37.531Z,948.4
2019-01-16T04:17:43.490Z,948.5
2019-01-16T04:20:49.450Z,948.5
2019-01-16T04:23:55.345Z,948.5
2019-01-16T04:27:01.368Z,948.5
2019-01-16T04:30:07.430Z,948.5
2019-01-16T04:33:13.599Z,948.4
2019-01-16T04:36:19.669Z,948.5
2019-01-16T04:39:25.621Z,948.5
2019-01-16T04:42:31.575Z,948.4
2019-01-16T04:45:37.581Z,948.3
2019-01-16T04:48:43.620Z,948.3
2019-01-16T04:51:49.695Z,948.3
2019-01-16T04:54:55.653Z,948.3
2019-01-16T04:58:01.684Z,948.4
2019-01-16T05:01:07.579Z,948.4
2019-01-16T05:04:13.631Z,948.4
2019-01-16T05:07:19.799Z,948.4
2019-01-16T05:10:28.417Z,948.4
2019-01-16T05:13:37.141Z,948.4
2019-01-16T05:16:43.077Z,948.4
2019-01-16T05:19:49.126Z,948.5
2019-01-16T05:22:55.031Z,948.4
2019-01-16T05:26:00.992Z,948.5
2019-01-16T05:29:06.864Z,948.6
2019-01-16T05:32:12.862Z,948.6
2019-01-16T05:35:18.922Z,948.6
2019-01-16T05:38:24.806Z,948.6
2019-01-16T05:41:30.850Z,948.5
2019-01-16T05:44:36.911Z,948.4
2019-01-16T05:47:42.887Z,948.5
2019-01-16T05:50:48.745Z,948.6
2019-01-16T05:53:54.686Z,948.6
2019-01-16T05:57:00.646Z,948.7
2019-01-16T06:00:06.621Z,948.7
2019-01-16T06:03:12.541Z,948.7
2019-01-16T06:06:18.475Z,948.6
2019-01-16T06:09:24.590Z,948.7
2019-01-16T06:12:30.560Z,948.6
2019-01-16T06:15:39.250Z,948.5
2019-01-16T06:18:45.126Z,948.6
2019-01-16T06:21:51.032Z,948.5
2019-01-16T06:24:56.910Z,948.5
2019-01-16T06:28:02.880Z,948.5
2019-01-16T06:31:08.985Z,948.6
2019-01-16T06:34:15.024Z,948.7
2019-01-16T06:37:20.903Z,948.7
2019-01-16T06:40:26.838Z,948.6
2019-01-16T06:43:32.724Z,948.8
2019-01-16T06:46:38.787Z,948.8
2019-01-16T06:49:44.796Z,948.8
2019-01-16T06:52:50.981Z,948.8
2019-01-16T06:55:57.075Z,948.8
2019-01-16T06:59:02.935Z,948.8
2019-01-16T07:02:08.971Z,948.9
2019-01-16T07:05:15.082Z,949
2019-01-16T07:08:22.274Z,949
2019-01-16T07:11:28.410Z,949
2019-01-16T07:14:34.463Z,949.1
2019-01-16T07:17:40.331Z,949
2019-01-16T07:20:46.283Z,949
2019-01-16T07:23:53.372Z,949
2019-01-16T07:26:59.441Z,949
2019-01-16T07:30:05.496Z,949.1
2019-01-16T07:33:11.399Z,949
2019-01-16T07:36:17.518Z,949.1
2019-01-16T07:39:23.398Z,949.2
2019-01-16T07:42:29.434Z,949.2
2019-01-16T07:45:35.601Z,949.2
2019-01-16T07:48:41.688Z,949.3
2019-01-16T07:51:48.057Z,949.1
2019-01-16T07:54:54.088Z,949.2
2019-01-16T07:58:00.115Z,949.2
2019-01-16T08:04:11.458Z,949.2
2019-01-16T08:07:17.551Z,949.2
2019-01-16T08:10:23.577Z,949.2
2019-01-16T08:13:29.455Z,949.2
2019-01-16T08:16:35.796Z,949.1
2019-01-16T08:19:42.200Z,949.2
2019-01-16T08:22:48.417Z,949.2
2019-01-16T08:25:56.524Z,949.2
2019-01-16T08:29:02.520Z,949.1
2019-01-16T08:32:08.552Z,949.2
2019-01-16T08:35:15.680Z,949.1
2019-01-16T08:38:22.100Z,949.1
2019-01-16T08:41:28.780Z,949
2019-01-16T08:44:34.917Z,949
2019-01-16T08:47:42.960Z,949
2019-01-16T08:50:49.029Z,948.9
2019-01-16T08:53:55.023Z,949
2019-01-16T08:57:01.382Z,949
2019-01-16T09:00:07.593Z,948.9
2019-01-16T09:03:13.675Z,949
2019-01-16T09:06:19.694Z,948.9
2019-01-16T09:09:25.801Z,948.8
2019-01-16T09:12:32.232Z,949
2019-01-16T09:15:43.415Z,948.9
2019-01-16T09:18:49.765Z,948.8
2019-01-16T09:21:56.025Z,948.8
2019-01-16T09:25:02.146Z,948.9
2019-01-16T09:28:08.025Z,948.8
2019-01-16T09:31:14.128Z,948.8
2019-01-16T09:34:20.334Z,948.9
2019-01-16T09:37:26.315Z,948.8
2019-01-16T09:40:32.358Z,948.6
2019-01-16T09:43:38.679Z,948.7
2019-01-16T09:46:46.053Z,948.6
2019-01-16T09:49:52.898Z,948.5
2019-01-16T09:52:58.877Z,948.7
2019-01-16T09:56:04.973Z,948.5
2019-01-16T09:59:10.982Z,948.5
2019-01-16T10:02:17.307Z,948.6
2019-01-16T10:05:24.346Z,948.6
2019-01-16T10:08:30.398Z,948.6
2019-01-16T10:11:37.826Z,948.5
2019-01-16T10:14:43.851Z,948.5
2019-01-16T10:17:49.911Z,948.5
2019-01-16T10:20:57.153Z,948.4
2019-01-16T10:24:03.148Z,948.5
2019-01-16T10:27:09.448Z,948.3
2019-01-16T10:30:15.494Z,948.4
2019-01-16T10:33:21.616Z,948.3
2019-01-16T10:36:27.482Z,948.4
2019-01-16T10:39:33.476Z,948.2
2019-01-16T10:42:39.353Z,948.2
2019-01-16T10:45:45.390Z,948.2
2019-01-16T10:48:51.356Z,948.2
2019-01-16T10:51:57.448Z,948.1
2019-01-16T10:55:03.375Z,948.1
2019-01-16T10:58:09.447Z,948.3
2019-01-16T11:01:15.567Z,948.1
2019-01-16T11:04:21.697Z,948.1
2019-01-16T11:07:27.846Z,948
2019-01-16T11:10:33.747Z,948.2
2019-01-16T11:13:39.752Z,948.2
2019-01-16T11:16:45.708Z,948.2
2019-01-16T11:19:59.445Z,948.2
2019-01-16T11:23:05.714Z,948.2
2019-01-16T11:26:11.851Z,948.3
2019-01-16T11:29:21.687Z,948.2
2019-01-16T11:32:27.899Z,948.2
2019-01-16T11:35:33.867Z,948.2
2019-01-16T11:38:42.733Z,948.3
2019-01-16T11:41:48.791Z,948.3
2019-01-16T11:44:54.799Z,948.2
2019-01-16T11:48:00.719Z,948.1
2019-01-16T11:51:06.845Z,948.2
2019-01-16T11:54:23.877Z,948.2
2019-01-16T11:57:29.850Z,948.1
2019-01-16T12:00:35.982Z,948.1
2019-01-16T12:03:43.015Z,948
2019-01-16T12:06:52.079Z,948
2019-01-16T12:09:58.042Z,948
2019-01-16T12:13:03.997Z,947.9
2019-01-16T12:16:10.063Z,948
2019-01-16T12:19:17.252Z,948.1
2019-01-16T12:22:23.484Z,948
2019-01-16T12:25:29.341Z,948.1
2019-01-16T12:28:37.477Z,948.1
2019-01-16T12:31:43.478Z,948.1
2019-01-16T12:34:49.811Z,948.2
2019-01-16T12:37:56.956Z,948.2
2019-01-16T12:41:03.062Z,948.2
2019-01-16T12:44:09.334Z,948.2
2019-01-16T12:47:16.259Z,948.3
2019-01-16T12:50:22.212Z,948.2
2019-01-16T12:53:28.793Z,948.2
2019-01-16T12:56:34.873Z,948.3
2019-01-16T12:59:43.755Z,948.3
2019-01-16T13:02:49.694Z,948.3
2019-01-16T13:05:55.572Z,948.2
2019-01-16T13:09:01.652Z,948.2
2019-01-16T13:12:09.821Z,948.2
2019-01-16T13:15:15.915Z,948.2
2019-01-16T13:18:21.848Z,948.1
2019-01-16T13:21:27.760Z,948.2
2019-01-16T13:24:33.638Z,948.2
2019-01-16T13:27:39.838Z,948.3
2019-01-16T13:30:45.746Z,948.3
2019-01-16T13:33:51.775Z,948.3
2019-01-16T13:36:57.913Z,948.4
2019-01-16T13:40:05.121Z,948.4
2019-01-16T13:43:11.281Z,948.3
2019-01-16T13:46:17.272Z,948.3
2019-01-16T13:49:24.254Z,948.2
2019-01-16T13:52:30.237Z,948.3
2019-01-16T13:55:36.584Z,948.2
2019-01-16T13:58:43.874Z,948.4
2019-01-16T14:01:50.971Z,948.3
2019-01-16T14:04:59.841Z,948.4
2019-01-16T14:08:05.900Z,948.5
2019-01-16T14:11:13.154Z,948.5
2019-01-16T14:14:19.252Z,948.5
2019-01-16T14:17:25.316Z,948.6
2019-01-16T14:20:31.272Z,948.5
2019-01-16T14:23:37.361Z,948.6
2019-01-16T14:26:43.223Z,948.5
2019-01-16T14:29:49.515Z,948.6
2019-01-16T14:32:55.635Z,948.6
2019-01-16T14:36:02.153Z,948.6
2019-01-16T14:39:08.027Z,948.6
2019-01-16T14:42:14.126Z,948.7
2019-01-16T14:45:20.144Z,948.7
2019-01-16T14:48:26.150Z,948.8
2019-01-16T14:51:32.071Z,948.8
2019-01-16T14:54:38.115Z,948.8
2019-01-16T14:57:44.041Z,948.8
2019-01-16T15:00:50.102Z,948.8
2019-01-16T15:03:55.962Z,948.9
2019-01-16T15:07:02.001Z,948.9
2019-01-16T15:10:08.155Z,948.9
2019-01-16T15:13:14.355Z,948.9
2019-01-16T15:16:20.318Z,949
2019-01-16T15:19:26.382Z,949.1
2019-01-16T15:22:32.236Z,949
2019-01-16T15:25:41.476Z,949.1
2019-01-16T15:28:47.332Z,949.2
2019-01-16T15:31:53.393Z,949.2
2019-01-16T15:34:59.372Z,949.3
2019-01-16T15:38:05.541Z,949.2
2019-01-16T15:41:11.506Z,949.2
2019-01-16T15:44:17.535Z,949.2
2019-01-16T15:47:23.596Z,949.2
2019-01-16T15:50:31.586Z,949.3
2019-01-16T15:53:37.863Z,949.3
2019-01-16T15:56:43.829Z,949.4
2019-01-16T15:59:49.770Z,949.4
2019-01-16T16:02:55.734Z,949.4
2019-01-16T16:06:01.600Z,949.5
2019-01-16T16:09:07.749Z,949.5
2019-01-16T16:12:15.100Z,949.5
2019-01-16T16:15:21.160Z,949.5
2019-01-16T16:18:27.264Z,949.6
2019-01-16T16:21:33.137Z,949.5
2019-01-16T16:24:40.308Z,949.5
2019-01-16T16:27:46.265Z,949.5
2019-01-16T16:30:53.527Z,949.5
2019-01-16T16:33:59.516Z,949.6
2019-01-16T16:37:05.576Z,949.6
2019-01-16T16:40:11.455Z,949.7
2019-01-16T16:43:17.495Z,949.8
2019-01-16T16:46:23.760Z,949.7
2019-01-16T16:49:29.650Z,949.7
2019-01-16T16:52:35.646Z,949.7
2019-01-16T16:55:41.652Z,949.7
2019-01-16T16:58:47.611Z,949.7
2019-01-16T17:02:01.380Z,949.7
2019-01-16T17:05:07.414Z,949.7
2019-01-16T17:08:13.466Z,949.8
2019-01-16T17:11:19.425Z,949.7
2019-01-16T17:14:25.383Z,949.8
2019-01-16T17:17:31.268Z,949.8
2019-01-16T17:20:37.210Z,949.6
2019-01-16T17:23:43.161Z,949.7
2019-01-16T17:26:49.055Z,949.8
2019-01-16T17:29:55.085Z,949.7
2019-01-16T17:33:03.908Z,949.6
2019-01-16T17:36:10.030Z,949.7
2019-01-16T17:39:17.158Z,949.8
2019-01-16T17:42:23.222Z,949.7
2019-01-16T17:45:29.440Z,949.8
2019-01-16T17:48:35.390Z,949.9
2019-01-16T17:51:41.403Z,949.9
2019-01-16T17:54:47.281Z,949.8
2019-01-16T17:57:53.490Z,949.8
2019-01-16T18:00:59.605Z,949.8
2019-01-16T18:04:05.649Z,949.9
2019-01-16T18:07:11.808Z,949.9
2019-01-16T18:10:17.935Z,949.9
2019-01-16T18:13:23.999Z,950.1
2019-01-16T18:16:30.007Z,950.1
2019-01-16T18:19:36.003Z,950.1
2019-01-16T18:22:46.391Z,950.2
2019-01-16T18:25:52.514Z,950.2
2019-01-16T18:28:59.092Z,950.3
2019-01-16T18:32:05.001Z,950.3
2019-01-16T18:35:10.988Z,950.2
2019-01-16T18:38:17.159Z,950.3
2019-01-16T18:41:23.116Z,950.3
2019-01-16T18:44:29.176Z,950.4
2019-01-16T18:47:35.100Z,950.4
2019-01-16T18:50:41.086Z,950.4
2019-01-16T18:53:46.964Z,950.4
2019-01-16T18:56:52.908Z,950.6
2019-01-16T18:59:58.781Z,950.6
2019-01-16T19:03:04.727Z,950.6
2019-01-16T19:06:10.790Z,950.6
2019-01-16T19:09:16.660Z,950.7
2019-01-16T19:12:22.618Z,950.7
2019-01-16T19:15:28.564Z,950.7
2019-01-16T19:18:34.487Z,950.7
2019-01-16T19:21:40.482Z,950.9
2019-01-16T19:24:46.359Z,951
2019-01-16T19:27:52.300Z,950.9
2019-01-16T19:30:58.199Z,950.9
2019-01-16T19:34:07.000Z,950.9
2019-01-16T19:37:12.994Z,951
2019-01-16T19:40:19.008Z,951
2019-01-16T19:43:24.945Z,951.1
2019-01-16T19:46:30.923Z,951.1
2019-01-16T19:49:36.986Z,951.1
2019-01-16T19:52:42.953Z,951.1
2019-01-16T19:55:48.821Z,951.1
2019-01-16T19:58:54.759Z,951.2
2019-01-16T20:02:00.718Z,951.2
2019-01-16T20:05:06.601Z,951.2
2019-01-16T20:08:12.537Z,951.3
2019-01-16T20:11:18.494Z,951.4
2019-01-16T20:14:24.456Z,951.3
2019-01-16T20:17:36.579Z,951.4
2019-01-16T20:20:42.489Z,951.4
2019-01-16T20:23:48.587Z,951.3
2019-01-16T20:26:54.481Z,951.4
2019-01-16T20:30:03.269Z,951.4
2019-01-16T20:33:09.227Z,951.5
2019-01-16T20:36:15.189Z,951.5
2019-01-16T20:39:21.142Z,951.5
2019-01-16T20:42:27.101Z,951.5
2019-01-16T20:45:33.022Z,951.5
2019-01-16T20:48:39.071Z,951.5
2019-01-16T20:51:44.979Z,951.5
2019-01-16T20:54:50.859Z,951.6
2019-01-16T20:57:56.900Z,951.6
2019-01-16T21:01:02.866Z,951.6
2019-01-16T21:04:08.922Z,951.7
2019-01-16T21:07:14.798Z,951.7
2019-01-16T21:10:20.777Z,951.8
2019-01-16T21:13:26.697Z,951.7
2019-01-16T21:16:32.661Z,951.7
2019-01-16T21:19:38.619Z,951.8
2019-01-16T21:22:44.643Z,951.9
2019-01-16T21:25:50.527Z,951.6
2019-01-16T21:28:56.495Z,951.7
2019-01-16T21:32:02.376Z,951.7
2019-01-16T21:35:08.313Z,951.7
2019-01-16T21:38:14.375Z,951.8
2019-01-16T21:41:20.339Z,951.8
2019-01-16T21:44:26.207Z,951.8
2019-01-16T21:47:37.784Z,951.8
2019-01-16T21:50:43.745Z,951.8
2019-01-16T21:53:50.659Z,951.8
2019-01-16T21:56:56.651Z,951.9
2019-01-16T22:00:02.658Z,951.9
2019-01-16T22:03:08.533Z,951.8
2019-01-16T22:06:14.586Z,951.8
2019-01-16T22:09:20.462Z,951.7
2019-01-16T22:12:26.381Z,951.8
2019-01-16T22:15:32.340Z,951.8
2019-01-16T22:18:38.300Z,951.8
2019-01-16T22:21:44.260Z,951.8
2019-01-16T22:24:50.138Z,951.8
2019-01-16T22:27:56.023Z,951.8
2019-01-16T22:31:02.047Z,951.8
2019-01-16T22:34:08.032Z,951.9
2019-01-16T22:37:13.891Z,951.7
2019-01-16T22:40:19.814Z,951.8
2019-01-16T22:43:28.690Z,951.8
2019-01-16T22:46:34.521Z,951.8
2019-01-16T22:49:40.457Z,951.7
2019-01-16T22:52:46.335Z,951.7
2019-01-16T22:55:52.279Z,951.6
2019-01-16T22:58:58.336Z,951.7
2019-01-16T23:02:04.505Z,951.7
2019-01-16T23:05:10.378Z,951.7
2019-01-16T23:08:16.319Z,951.6
2019-01-16T23:11:22.281Z,951.6
2019-01-16T23:14:28.345Z,951.7
2019-01-16T23:17:34.304Z,951.6
2019-01-16T23:20:40.262Z,951.6
2019-01-16T23:23:51.038Z,951.6
2019-01-16T23:26:57.101Z,951.6
2019-01-16T23:30:03.066Z,951.6
2019-01-16T23:33:09.116Z,951.6
2019-01-16T23:36:15.075Z,951.6
2019-01-16T23:39:20.950Z,951.6
2019-01-16T23:42:26.890Z,951.6
2019-01-16T23:45:32.766Z,951.6
2019-01-16T23:48:38.810Z,951.6
2019-01-16T23:51:44.776Z,951.6
2019-01-16T23:54:50.650Z,951.7
2019-01-16T23:57:56.593Z,951.8
